sensor_id;sensor_type;location;lat;lon;timestamp;pressure;altitude;pressure_sealevel;temperature
20058;BMP180;10189;49.546;7.906;2024-03-02T00:00:51;96969.00;;;5.30
20058;BMP180;10189;49.546;7.906;2024-03-02T00:03:20;96959.00;;;5.20
20058;BMP180;10189;49.546;7.906;2024-03-02T00:06:20;96964.00;;;5.10
20058;BMP180;10189;49.546;7.906;2024-03-02T00:08:49;96966.00;;;5.10
20058;BMP180;10189;49.546;7.906;2024-03-02T00:12:05;96959.00;;;5.20
20058;BMP180;10189;49.546;7.906;2024-03-02T00:15:01;96958.00;;;5.20
20058;BMP180;10189;49.546;7.906;2024-03-02T00:17:29;96962.00;;;5.10
20058;BMP180;10189;49.546;7.906;2024-03-02T00:19:55;96959.00;;;5.10
20058;BMP180;10189;49.546;7.906;2024-03-02T00:22:21;96962.00;;;5.20
20058;BMP180;10189;49.546;7.906;2024-03-02T00:24:48;96961.00;;;5.20
20058;BMP180;10189;49.546;7.906;2024-03-02T00:27:17;96961.00;;;5.20
20058;BMP180;10189;49.546;7.906;2024-03-02T00:29:43;96947.00;;;5.30
20058;BMP180;10189;49.546;7.906;2024-03-02T00:32:13;96955.00;;;5.30
20058;BMP180;10189;49.546;7.906;2024-03-02T00:34:41;96953.00;;;5.30
20058;BMP180;10189;49.546;7.906;2024-03-02T00:37:08;96948.00;;;5.20
20058;BMP180;10189;49.546;7.906;2024-03-02T00:39:34;96942.00;;;5.20
20058;BMP180;10189;49.546;7.906;2024-03-02T00:42:00;96950.00;;;5.20
20058;BMP180;10189;49.546;7.906;2024-03-02T00:44:26;96939.00;;;5.20
20058;BMP180;10189;49.546;7.906;2024-03-02T00:46:53;96940.00;;;5.10
20058;BMP180;10189;49.546;7.906;2024-03-02T00:49:22;96941.00;;;5.10
20058;BMP180;10189;49.546;7.906;2024-03-02T00:51:51;96944.00;;;5.10
20058;BMP180;10189;49.546;7.906;2024-03-02T00:54:24;96940.00;;;5.00
20058;BMP180;10189;49.546;7.906;2024-03-02T00:56:52;96940.00;;;5.00
20058;BMP180;10189;49.546;7.906;2024-03-02T00:59:21;96941.00;;;5.00
20058;BMP180;10189;49.546;7.906;2024-03-02T01:01:49;96940.00;;;5.00
20058;BMP180;10189;49.546;7.906;2024-03-02T01:04:15;96944.00;;;5.00
20058;BMP180;10189;49.546;7.906;2024-03-02T01:06:44;96939.00;;;5.10
20058;BMP180;10189;49.546;7.906;2024-03-02T01:09:11;96947.00;;;5.10
20058;BMP180;10189;49.546;7.906;2024-03-02T01:11:38;96942.00;;;5.10
20058;BMP180;10189;49.546;7.906;2024-03-02T01:14:04;96935.00;;;5.00
20058;BMP180;10189;49.546;7.906;2024-03-02T01:16:30;96935.00;;;5.00
20058;BMP180;10189;49.546;7.906;2024-03-02T01:18:56;96949.00;;;4.90
20058;BMP180;10189;49.546;7.906;2024-03-02T01:21:22;96934.00;;;4.90
20058;BMP180;10189;49.546;7.906;2024-03-02T01:23:47;96941.00;;;5.00
20058;BMP180;10189;49.546;7.906;2024-03-02T01:26:13;96933.00;;;4.90
20058;BMP180;10189;49.546;7.906;2024-03-02T01:28:39;96925.00;;;5.10
20058;BMP180;10189;49.546;7.906;2024-03-02T01:31:05;96923.00;;;5.10
20058;BMP180;10189;49.546;7.906;2024-03-02T01:33:31;96923.00;;;5.20
20058;BMP180;10189;49.546;7.906;2024-03-02T01:35:57;96918.00;;;5.20
20058;BMP180;10189;49.546;7.906;2024-03-02T01:38:23;96923.00;;;5.20
20058;BMP180;10189;49.546;7.906;2024-03-02T01:40:48;96918.00;;;5.30
20058;BMP180;10189;49.546;7.906;2024-03-02T01:43:14;96918.00;;;5.40
20058;BMP180;10189;49.546;7.906;2024-03-02T01:45:40;96919.00;;;5.40
20058;BMP180;10189;49.546;7.906;2024-03-02T01:48:07;96926.00;;;5.40
20058;BMP180;10189;49.546;7.906;2024-03-02T01:50:33;96915.00;;;5.40
20058;BMP180;10189;49.546;7.906;2024-03-02T01:53:00;96928.00;;;5.30
20058;BMP180;10189;49.546;7.906;2024-03-02T01:55:28;96929.00;;;5.30
20058;BMP180;10189;49.546;7.906;2024-03-02T01:57:58;96918.00;;;5.30
20058;BMP180;10189;49.546;7.906;2024-03-02T02:00:25;96907.00;;;5.40
20058;BMP180;10189;49.546;7.906;2024-03-02T02:02:52;96911.00;;;5.50
20058;BMP180;10189;49.546;7.906;2024-03-02T02:05:18;96910.00;;;5.60
20058;BMP180;10189;49.546;7.906;2024-03-02T02:07:44;96910.00;;;5.70
20058;BMP180;10189;49.546;7.906;2024-03-02T02:10:11;96908.00;;;5.70
20058;BMP180;10189;49.546;7.906;2024-03-02T02:12:37;96904.00;;;5.80
20058;BMP180;10189;49.546;7.906;2024-03-02T02:15:21;96897.00;;;5.80
20058;BMP180;10189;49.546;7.906;2024-03-02T02:17:47;96901.00;;;5.80
20058;BMP180;10189;49.546;7.906;2024-03-02T02:20:13;96894.00;;;5.80
20058;BMP180;10189;49.546;7.906;2024-03-02T02:22:39;96892.00;;;5.80
20058;BMP180;10189;49.546;7.906;2024-03-02T02:25:05;96883.00;;;5.90
20058;BMP180;10189;49.546;7.906;2024-03-02T02:27:31;96884.00;;;6.10
20058;BMP180;10189;49.546;7.906;2024-03-02T02:29:57;96877.00;;;6.30
20058;BMP180;10189;49.546;7.906;2024-03-02T02:32:23;96869.00;;;6.50
20058;BMP180;10189;49.546;7.906;2024-03-02T02:34:52;96863.00;;;6.70
20058;BMP180;10189;49.546;7.906;2024-03-02T02:37:18;96858.00;;;6.80
20058;BMP180;10189;49.546;7.906;2024-03-02T02:39:44;96865.00;;;6.80
20058;BMP180;10189;49.546;7.906;2024-03-02T02:42:12;96851.00;;;6.90
20058;BMP180;10189;49.546;7.906;2024-03-02T02:44:38;96846.00;;;7.00
20058;BMP180;10189;49.546;7.906;2024-03-02T02:47:04;96853.00;;;7.00
20058;BMP180;10189;49.546;7.906;2024-03-02T02:49:31;96848.00;;;7.00
20058;BMP180;10189;49.546;7.906;2024-03-02T02:51:57;96842.00;;;7.00
20058;BMP180;10189;49.546;7.906;2024-03-02T02:54:22;96845.00;;;7.10
20058;BMP180;10189;49.546;7.906;2024-03-02T02:56:48;96841.00;;;7.00
20058;BMP180;10189;49.546;7.906;2024-03-02T02:59:14;96840.00;;;7.00
20058;BMP180;10189;49.546;7.906;2024-03-02T03:01:40;96840.00;;;7.00
20058;BMP180;10189;49.546;7.906;2024-03-02T03:04:06;96837.00;;;7.00
20058;BMP180;10189;49.546;7.906;2024-03-02T03:06:32;96850.00;;;7.10
20058;BMP180;10189;49.546;7.906;2024-03-02T03:08:59;96837.00;;;7.10
20058;BMP180;10189;49.546;7.906;2024-03-02T03:11:25;96834.00;;;7.10
20058;BMP180;10189;49.546;7.906;2024-03-02T03:13:53;96836.00;;;7.10
20058;BMP180;10189;49.546;7.906;2024-03-02T03:16:20;96831.00;;;7.00
20058;BMP180;10189;49.546;7.906;2024-03-02T03:18:46;96833.00;;;7.00
20058;BMP180;10189;49.546;7.906;2024-03-02T03:21:12;96832.00;;;6.90
20058;BMP180;10189;49.546;7.906;2024-03-02T03:23:38;96847.00;;;6.90
20058;BMP180;10189;49.546;7.906;2024-03-02T03:26:04;96842.00;;;6.80
20058;BMP180;10189;49.546;7.906;2024-03-02T03:28:30;96836.00;;;6.70
20058;BMP180;10189;49.546;7.906;2024-03-02T03:30:56;96827.00;;;6.80
20058;BMP180;10189;49.546;7.906;2024-03-02T03:33:21;96831.00;;;6.70
20058;BMP180;10189;49.546;7.906;2024-03-02T03:35:48;96831.00;;;6.70
20058;BMP180;10189;49.546;7.906;2024-03-02T03:38:16;96832.00;;;6.70
20058;BMP180;10189;49.546;7.906;2024-03-02T03:40:42;96836.00;;;6.70
20058;BMP180;10189;49.546;7.906;2024-03-02T03:43:09;96829.00;;;6.60
20058;BMP180;10189;49.546;7.906;2024-03-02T03:45:35;96839.00;;;6.60
20058;BMP180;10189;49.546;7.906;2024-03-02T03:48:04;96827.00;;;6.50
20058;BMP180;10189;49.546;7.906;2024-03-02T03:50:30;96830.00;;;6.40
20058;BMP180;10189;49.546;7.906;2024-03-02T03:52:57;96826.00;;;6.40
20058;BMP180;10189;49.546;7.906;2024-03-02T03:55:24;96831.00;;;6.50
20058;BMP180;10189;49.546;7.906;2024-03-02T03:57:51;96842.00;;;6.50
20058;BMP180;10189;49.546;7.906;2024-03-02T04:00:17;96840.00;;;6.40
20058;BMP180;10189;49.546;7.906;2024-03-02T04:02:44;96846.00;;;6.50
20058;BMP180;10189;49.546;7.906;2024-03-02T04:05:10;96843.00;;;6.50
20058;BMP180;10189;49.546;7.906;2024-03-02T04:07:37;96838.00;;;6.50
20058;BMP180;10189;49.546;7.906;2024-03-02T04:10:08;96842.00;;;6.50
20058;BMP180;10189;49.546;7.906;2024-03-02T04:12:38;96831.00;;;6.40
20058;BMP180;10189;49.546;7.906;2024-03-02T04:15:05;96847.00;;;6.40
20058;BMP180;10189;49.546;7.906;2024-03-02T04:17:33;96847.00;;;6.30
20058;BMP180;10189;49.546;7.906;2024-03-02T04:20:00;96842.00;;;6.40
20058;BMP180;10189;49.546;7.906;2024-03-02T04:22:27;96840.00;;;6.30
20058;BMP180;10189;49.546;7.906;2024-03-02T04:24:53;96848.00;;;6.20
20058;BMP180;10189;49.546;7.906;2024-03-02T04:27:20;96849.00;;;6.20
20058;BMP180;10189;49.546;7.906;2024-03-02T04:29:45;96855.00;;;6.00
20058;BMP180;10189;49.546;7.906;2024-03-02T04:32:11;96849.00;;;6.10
20058;BMP180;10189;49.546;7.906;2024-03-02T04:34:37;96859.00;;;6.00
20058;BMP180;10189;49.546;7.906;2024-03-02T04:37:03;96857.00;;;6.00
20058;BMP180;10189;49.546;7.906;2024-03-02T04:39:29;96855.00;;;6.00
20058;BMP180;10189;49.546;7.906;2024-03-02T04:41:55;96855.00;;;6.00
20058;BMP180;10189;49.546;7.906;2024-03-02T04:44:20;96847.00;;;6.10
20058;BMP180;10189;49.546;7.906;2024-03-02T04:46:46;96856.00;;;6.20
20058;BMP180;10189;49.546;7.906;2024-03-02T04:49:12;96856.00;;;6.30
20058;BMP180;10189;49.546;7.906;2024-03-02T04:51:38;96854.00;;;6.40
20058;BMP180;10189;49.546;7.906;2024-03-02T04:54:04;96854.00;;;6.60
20058;BMP180;10189;49.546;7.906;2024-03-02T04:56:30;96864.00;;;6.80
20058;BMP180;10189;49.546;7.906;2024-03-02T04:58:59;96845.00;;;7.00
20058;BMP180;10189;49.546;7.906;2024-03-02T05:01:25;96855.00;;;7.10
20058;BMP180;10189;49.546;7.906;2024-03-02T05:03:51;96852.00;;;7.30
20058;BMP180;10189;49.546;7.906;2024-03-02T05:06:19;96861.00;;;7.30
20058;BMP180;10189;49.546;7.906;2024-03-02T05:08:46;96863.00;;;7.20
20058;BMP180;10189;49.546;7.906;2024-03-02T05:11:13;96862.00;;;7.10
20058;BMP180;10189;49.546;7.906;2024-03-02T05:14:14;96859.00;;;7.10
20058;BMP180;10189;49.546;7.906;2024-03-02T05:16:40;96860.00;;;7.30
20058;BMP180;10189;49.546;7.906;2024-03-02T05:19:08;96856.00;;;7.60
20058;BMP180;10189;49.546;7.906;2024-03-02T05:21:34;96862.00;;;7.80
20058;BMP180;10189;49.546;7.906;2024-03-02T05:24:01;96863.00;;;7.90
20058;BMP180;10189;49.546;7.906;2024-03-02T05:26:27;96866.00;;;8.00
20058;BMP180;10189;49.546;7.906;2024-03-02T05:28:53;96843.00;;;8.20
20058;BMP180;10189;49.546;7.906;2024-03-02T05:31:19;96862.00;;;8.30
20058;BMP180;10189;49.546;7.906;2024-03-02T05:33:46;96868.00;;;8.40
20058;BMP180;10189;49.546;7.906;2024-03-02T05:36:12;96864.00;;;8.40
20058;BMP180;10189;49.546;7.906;2024-03-02T05:38:38;96863.00;;;8.50
20058;BMP180;10189;49.546;7.906;2024-03-02T05:41:04;96859.00;;;8.50
20058;BMP180;10189;49.546;7.906;2024-03-02T05:43:30;96871.00;;;8.60
20058;BMP180;10189;49.546;7.906;2024-03-02T05:45:56;96866.00;;;8.60
20058;BMP180;10189;49.546;7.906;2024-03-02T05:48:22;96871.00;;;8.60
20058;BMP180;10189;49.546;7.906;2024-03-02T05:50:49;96871.00;;;8.70
20058;BMP180;10189;49.546;7.906;2024-03-02T05:53:15;96866.00;;;8.60
20058;BMP180;10189;49.546;7.906;2024-03-02T05:55:41;96871.00;;;8.80
20058;BMP180;10189;49.546;7.906;2024-03-02T05:58:07;96861.00;;;8.80
20058;BMP180;10189;49.546;7.906;2024-03-02T06:00:52;96860.00;;;8.80
20058;BMP180;10189;49.546;7.906;2024-03-02T06:03:18;96871.00;;;8.80
20058;BMP180;10189;49.546;7.906;2024-03-02T06:05:44;96861.00;;;8.90
20058;BMP180;10189;49.546;7.906;2024-03-02T06:08:10;96863.00;;;9.00
20058;BMP180;10189;49.546;7.906;2024-03-02T06:10:36;96848.00;;;9.00
20058;BMP180;10189;49.546;7.906;2024-03-02T06:13:03;96855.00;;;9.00
20058;BMP180;10189;49.546;7.906;2024-03-02T06:15:29;96850.00;;;9.00
20058;BMP180;10189;49.546;7.906;2024-03-02T06:17:56;96865.00;;;9.00
20058;BMP180;10189;49.546;7.906;2024-03-02T06:20:22;96873.00;;;9.20
20058;BMP180;10189;49.546;7.906;2024-03-02T06:22:48;96868.00;;;9.10
20058;BMP180;10189;49.546;7.906;2024-03-02T06:25:14;96870.00;;;9.10
20058;BMP180;10189;49.546;7.906;2024-03-02T06:27:40;96866.00;;;9.10
20058;BMP180;10189;49.546;7.906;2024-03-02T06:30:06;96862.00;;;9.10
20058;BMP180;10189;49.546;7.906;2024-03-02T06:32:34;96869.00;;;9.10
20058;BMP180;10189;49.546;7.906;2024-03-02T06:34:59;96888.00;;;9.20
20058;BMP180;10189;49.546;7.906;2024-03-02T06:37:25;96881.00;;;9.20
20058;BMP180;10189;49.546;7.906;2024-03-02T06:39:51;96874.00;;;9.30
20058;BMP180;10189;49.546;7.906;2024-03-02T06:42:17;96880.00;;;9.30
20058;BMP180;10189;49.546;7.906;2024-03-02T06:44:43;96886.00;;;9.40
20058;BMP180;10189;49.546;7.906;2024-03-02T06:47:09;96885.00;;;9.40
20058;BMP180;10189;49.546;7.906;2024-03-02T06:49:35;96880.00;;;9.50
20058;BMP180;10189;49.546;7.906;2024-03-02T06:52:01;96888.00;;;9.50
20058;BMP180;10189;49.546;7.906;2024-03-02T06:54:26;96879.00;;;9.60
20058;BMP180;10189;49.546;7.906;2024-03-02T06:56:52;96878.00;;;9.60
20058;BMP180;10189;49.546;7.906;2024-03-02T06:59:18;96875.00;;;9.80
20058;BMP180;10189;49.546;7.906;2024-03-02T07:01:44;96881.00;;;9.90
20058;BMP180;10189;49.546;7.906;2024-03-02T07:04:10;96877.00;;;10.00
20058;BMP180;10189;49.546;7.906;2024-03-02T07:06:36;96880.00;;;10.10
20058;BMP180;10189;49.546;7.906;2024-03-02T07:09:01;96882.00;;;10.10
20058;BMP180;10189;49.546;7.906;2024-03-02T07:11:28;96886.00;;;10.10
20058;BMP180;10189;49.546;7.906;2024-03-02T07:13:53;96892.00;;;10.20
20058;BMP180;10189;49.546;7.906;2024-03-02T07:16:19;96887.00;;;10.20
20058;BMP180;10189;49.546;7.906;2024-03-02T07:18:56;96882.00;;;10.40
20058;BMP180;10189;49.546;7.906;2024-03-02T07:21:22;96885.00;;;10.40
20058;BMP180;10189;49.546;7.906;2024-03-02T07:23:49;96894.00;;;10.60
20058;BMP180;10189;49.546;7.906;2024-03-02T07:26:15;96898.00;;;10.60
20058;BMP180;10189;49.546;7.906;2024-03-02T07:28:42;96890.00;;;10.60
20058;BMP180;10189;49.546;7.906;2024-03-02T07:31:09;96890.00;;;10.80
20058;BMP180;10189;49.546;7.906;2024-03-02T07:33:35;96887.00;;;10.70
20058;BMP180;10189;49.546;7.906;2024-03-02T07:36:01;96902.00;;;10.60
20058;BMP180;10189;49.546;7.906;2024-03-02T07:38:31;96902.00;;;10.60
20058;BMP180;10189;49.546;7.906;2024-03-02T07:40:59;96892.00;;;10.60
20058;BMP180;10189;49.546;7.906;2024-03-02T07:43:26;96900.00;;;10.60
20058;BMP180;10189;49.546;7.906;2024-03-02T07:45:52;96891.00;;;10.60
20058;BMP180;10189;49.546;7.906;2024-03-02T07:48:18;96896.00;;;10.70
20058;BMP180;10189;49.546;7.906;2024-03-02T07:50:44;96911.00;;;10.60
20058;BMP180;10189;49.546;7.906;2024-03-02T07:53:10;96914.00;;;10.80
20058;BMP180;10189;49.546;7.906;2024-03-02T07:55:37;96908.00;;;10.90
20058;BMP180;10189;49.546;7.906;2024-03-02T07:58:03;96904.00;;;11.10
20058;BMP180;10189;49.546;7.906;2024-03-02T08:00:29;96910.00;;;11.30
20058;BMP180;10189;49.546;7.906;2024-03-02T08:02:55;96906.00;;;11.50
20058;BMP180;10189;49.546;7.906;2024-03-02T08:05:22;96896.00;;;11.60
20058;BMP180;10189;49.546;7.906;2024-03-02T08:07:48;96894.00;;;11.60
20058;BMP180;10189;49.546;7.906;2024-03-02T08:10:18;96890.00;;;11.60
20058;BMP180;10189;49.546;7.906;2024-03-02T08:12:45;96896.00;;;11.80
20058;BMP180;10189;49.546;7.906;2024-03-02T08:15:11;96899.00;;;11.90
20058;BMP180;10189;49.546;7.906;2024-03-02T08:17:40;96888.00;;;12.00
20058;BMP180;10189;49.546;7.906;2024-03-02T08:20:14;96904.00;;;12.10
20058;BMP180;10189;49.546;7.906;2024-03-02T08:22:40;96890.00;;;12.10
20058;BMP180;10189;49.546;7.906;2024-03-02T08:25:07;96896.00;;;12.10
20058;BMP180;10189;49.546;7.906;2024-03-02T08:27:34;96890.00;;;12.40
20058;BMP180;10189;49.546;7.906;2024-03-02T08:30:00;96894.00;;;12.50
20058;BMP180;10189;49.546;7.906;2024-03-02T08:32:25;96890.00;;;12.50
20058;BMP180;10189;49.546;7.906;2024-03-02T08:34:51;96891.00;;;12.70
20058;BMP180;10189;49.546;7.906;2024-03-02T08:37:17;96886.00;;;12.80
20058;BMP180;10189;49.546;7.906;2024-03-02T08:39:45;96889.00;;;13.00
20058;BMP180;10189;49.546;7.906;2024-03-02T08:42:10;96895.00;;;13.00
20058;BMP180;10189;49.546;7.906;2024-03-02T08:44:37;96883.00;;;13.10
20058;BMP180;10189;49.546;7.906;2024-03-02T08:47:03;96891.00;;;13.10
20058;BMP180;10189;49.546;7.906;2024-03-02T08:49:29;96891.00;;;12.90
20058;BMP180;10189;49.546;7.906;2024-03-02T08:51:55;96893.00;;;12.80
20058;BMP180;10189;49.546;7.906;2024-03-02T08:54:22;96893.00;;;13.00
20058;BMP180;10189;49.546;7.906;2024-03-02T08:56:51;96890.00;;;13.30
20058;BMP180;10189;49.546;7.906;2024-03-02T08:59:17;96885.00;;;13.30
20058;BMP180;10189;49.546;7.906;2024-03-02T09:01:43;96894.00;;;13.10
20058;BMP180;10189;49.546;7.906;2024-03-02T09:04:09;96889.00;;;13.30
20058;BMP180;10189;49.546;7.906;2024-03-02T09:06:35;96895.00;;;13.20
20058;BMP180;10189;49.546;7.906;2024-03-02T09:09:01;96890.00;;;13.20
20058;BMP180;10189;49.546;7.906;2024-03-02T09:11:27;96897.00;;;13.00
20058;BMP180;10189;49.546;7.906;2024-03-02T09:13:53;96911.00;;;12.80
20058;BMP180;10189;49.546;7.906;2024-03-02T09:16:20;96903.00;;;12.50
20058;BMP180;10189;49.546;7.906;2024-03-02T09:18:46;96911.00;;;12.70
20058;BMP180;10189;49.546;7.906;2024-03-02T09:21:12;96903.00;;;12.80
20058;BMP180;10189;49.546;7.906;2024-03-02T09:23:38;96897.00;;;13.20
20058;BMP180;10189;49.546;7.906;2024-03-02T09:26:06;96898.00;;;13.30
20058;BMP180;10189;49.546;7.906;2024-03-02T09:28:31;96902.00;;;13.30
20058;BMP180;10189;49.546;7.906;2024-03-02T09:30:57;96897.00;;;13.30
20058;BMP180;10189;49.546;7.906;2024-03-02T09:33:23;96889.00;;;13.30
20058;BMP180;10189;49.546;7.906;2024-03-02T09:35:49;96890.00;;;13.20
20058;BMP180;10189;49.546;7.906;2024-03-02T09:38:15;96894.00;;;13.20
20058;BMP180;10189;49.546;7.906;2024-03-02T09:40:42;96889.00;;;13.40
20058;BMP180;10189;49.546;7.906;2024-03-02T09:43:09;96887.00;;;13.70
20058;BMP180;10189;49.546;7.906;2024-03-02T09:45:36;96890.00;;;13.90
20058;BMP180;10189;49.546;7.906;2024-03-02T09:48:02;96884.00;;;13.60
20058;BMP180;10189;49.546;7.906;2024-03-02T09:50:28;96876.00;;;13.60
20058;BMP180;10189;49.546;7.906;2024-03-02T09:52:54;96888.00;;;13.30
20058;BMP180;10189;49.546;7.906;2024-03-02T09:55:20;96885.00;;;13.30
20058;BMP180;10189;49.546;7.906;2024-03-02T09:57:46;96882.00;;;13.40
20058;BMP180;10189;49.546;7.906;2024-03-02T10:00:14;96881.00;;;13.40
20058;BMP180;10189;49.546;7.906;2024-03-02T10:02:41;96879.00;;;13.40
20058;BMP180;10189;49.546;7.906;2024-03-02T10:05:09;96888.00;;;13.30
20058;BMP180;10189;49.546;7.906;2024-03-02T10:07:35;96884.00;;;13.10
20058;BMP180;10189;49.546;7.906;2024-03-02T10:10:14;96884.00;;;13.40
20058;BMP180;10189;49.546;7.906;2024-03-02T10:12:40;96891.00;;;13.20
20058;BMP180;10189;49.546;7.906;2024-03-02T10:15:07;96885.00;;;13.10
20058;BMP180;10189;49.546;7.906;2024-03-02T10:17:35;96885.00;;;13.30
20058;BMP180;10189;49.546;7.906;2024-03-02T10:20:25;96882.00;;;13.20
20058;BMP180;10189;49.546;7.906;2024-03-02T10:22:52;96870.00;;;13.10
20058;BMP180;10189;49.546;7.906;2024-03-02T10:25:33;96876.00;;;12.80
20058;BMP180;10189;49.546;7.906;2024-03-02T10:27:59;96884.00;;;12.80
20058;BMP180;10189;49.546;7.906;2024-03-02T10:30:27;96880.00;;;12.60
20058;BMP180;10189;49.546;7.906;2024-03-02T10:32:54;96886.00;;;12.70
20058;BMP180;10189;49.546;7.906;2024-03-02T10:35:22;96882.00;;;12.70
20058;BMP180;10189;49.546;7.906;2024-03-02T10:37:50;96879.00;;;12.90
20058;BMP180;10189;49.546;7.906;2024-03-02T10:40:16;96877.00;;;13.00
20058;BMP180;10189;49.546;7.906;2024-03-02T10:42:43;96882.00;;;13.00
20058;BMP180;10189;49.546;7.906;2024-03-02T10:45:14;96873.00;;;13.20
20058;BMP180;10189;49.546;7.906;2024-03-02T10:47:42;96869.00;;;13.50
20058;BMP180;10189;49.546;7.906;2024-03-02T10:50:09;96876.00;;;13.80
20058;BMP180;10189;49.546;7.906;2024-03-02T10:52:37;96858.00;;;14.10
20058;BMP180;10189;49.546;7.906;2024-03-02T10:55:04;96858.00;;;14.20
20058;BMP180;10189;49.546;7.906;2024-03-02T10:57:54;96854.00;;;14.20
20058;BMP180;10189;49.546;7.906;2024-03-02T11:00:25;96847.00;;;14.40
20058;BMP180;10189;49.546;7.906;2024-03-02T11:03:05;96847.00;;;14.10
20058;BMP180;10189;49.546;7.906;2024-03-02T11:05:36;96844.00;;;14.00
20058;BMP180;10189;49.546;7.906;2024-03-02T11:08:13;96845.00;;;13.70
20058;BMP180;10189;49.546;7.906;2024-03-02T11:10:50;96855.00;;;13.50
20058;BMP180;10189;49.546;7.906;2024-03-02T11:13:24;96855.00;;;13.40
20058;BMP180;10189;49.546;7.906;2024-03-02T11:18:45;96847.00;;;13.60
20058;BMP180;10189;49.546;7.906;2024-03-02T11:21:19;96839.00;;;13.40
20058;BMP180;10189;49.546;7.906;2024-03-02T11:23:45;96838.00;;;13.30
20058;BMP180;10189;49.546;7.906;2024-03-02T11:26:22;96832.00;;;13.50
20058;BMP180;10189;49.546;7.906;2024-03-02T11:28:53;96827.00;;;13.70
20058;BMP180;10189;49.546;7.906;2024-03-02T11:31:22;96832.00;;;13.80
20058;BMP180;10189;49.546;7.906;2024-03-02T11:34:34;96827.00;;;13.70
20058;BMP180;10189;49.546;7.906;2024-03-02T11:37:04;96814.00;;;13.80
20058;BMP180;10189;49.546;7.906;2024-03-02T11:39:31;96813.00;;;13.90
20058;BMP180;10189;49.546;7.906;2024-03-02T11:41:57;96814.00;;;14.00
20058;BMP180;10189;49.546;7.906;2024-03-02T11:44:27;96813.00;;;14.20
20058;BMP180;10189;49.546;7.906;2024-03-02T11:47:01;96811.00;;;14.40
20058;BMP180;10189;49.546;7.906;2024-03-02T11:49:40;96820.00;;;14.10
20058;BMP180;10189;49.546;7.906;2024-03-02T11:52:09;96812.00;;;14.00
20058;BMP180;10189;49.546;7.906;2024-03-02T11:54:39;96806.00;;;14.20
20058;BMP180;10189;49.546;7.906;2024-03-02T11:57:08;96783.00;;;14.50
20058;BMP180;10189;49.546;7.906;2024-03-02T11:59:35;96785.00;;;14.80
20058;BMP180;10189;49.546;7.906;2024-03-02T12:02:01;96786.00;;;14.80
20058;BMP180;10189;49.546;7.906;2024-03-02T12:04:29;96783.00;;;14.90
20058;BMP180;10189;49.546;7.906;2024-03-02T12:07:01;96773.00;;;14.90
20058;BMP180;10189;49.546;7.906;2024-03-02T12:09:28;96780.00;;;15.10
20058;BMP180;10189;49.546;7.906;2024-03-02T12:12:04;96770.00;;;15.20
20058;BMP180;10189;49.546;7.906;2024-03-02T12:14:32;96778.00;;;15.10
20058;BMP180;10189;49.546;7.906;2024-03-02T12:17:01;96770.00;;;14.80
20058;BMP180;10189;49.546;7.906;2024-03-02T12:19:28;96774.00;;;14.90
20058;BMP180;10189;49.546;7.906;2024-03-02T12:21:59;96764.00;;;15.10
20058;BMP180;10189;49.546;7.906;2024-03-02T12:24:29;96773.00;;;15.10
20058;BMP180;10189;49.546;7.906;2024-03-02T12:26:56;96772.00;;;15.30
20058;BMP180;10189;49.546;7.906;2024-03-02T12:29:23;96765.00;;;15.20
20058;BMP180;10189;49.546;7.906;2024-03-02T12:31:51;96758.00;;;15.20
20058;BMP180;10189;49.546;7.906;2024-03-02T12:34:23;96752.00;;;15.50
20058;BMP180;10189;49.546;7.906;2024-03-02T12:36:49;96749.00;;;15.60
20058;BMP180;10189;49.546;7.906;2024-03-02T12:39:19;96745.00;;;15.50
20058;BMP180;10189;49.546;7.906;2024-03-02T12:41:46;96748.00;;;15.30
20058;BMP180;10189;49.546;7.906;2024-03-02T12:44:13;96740.00;;;15.70
20058;BMP180;10189;49.546;7.906;2024-03-02T12:46:39;96736.00;;;15.70
20058;BMP180;10189;49.546;7.906;2024-03-02T12:49:13;96726.00;;;15.60
20058;BMP180;10189;49.546;7.906;2024-03-02T12:51:40;96732.00;;;15.40
20058;BMP180;10189;49.546;7.906;2024-03-02T12:54:09;96733.00;;;15.10
20058;BMP180;10189;49.546;7.906;2024-03-02T12:56:41;96735.00;;;15.20
20058;BMP180;10189;49.546;7.906;2024-03-02T12:59:26;96722.00;;;15.50
20058;BMP180;10189;49.546;7.906;2024-03-02T13:01:55;96726.00;;;15.90
20058;BMP180;10189;49.546;7.906;2024-03-02T13:04:26;96727.00;;;16.00
20058;BMP180;10189;49.546;7.906;2024-03-02T13:06:55;96715.00;;;16.00
20058;BMP180;10189;49.546;7.906;2024-03-02T13:09:23;96719.00;;;16.00
20058;BMP180;10189;49.546;7.906;2024-03-02T13:11:50;96720.00;;;16.00
20058;BMP180;10189;49.546;7.906;2024-03-02T13:14:18;96714.00;;;15.80
20058;BMP180;10189;49.546;7.906;2024-03-02T13:16:44;96716.00;;;16.00
20058;BMP180;10189;49.546;7.906;2024-03-02T13:19:14;96706.00;;;16.20
20058;BMP180;10189;49.546;7.906;2024-03-02T13:21:40;96712.00;;;16.30
20058;BMP180;10189;49.546;7.906;2024-03-02T13:24:06;96713.00;;;16.50
20058;BMP180;10189;49.546;7.906;2024-03-02T13:26:32;96717.00;;;16.60
20058;BMP180;10189;49.546;7.906;2024-03-02T13:28:58;96714.00;;;16.60
20058;BMP180;10189;49.546;7.906;2024-03-02T13:31:24;96713.00;;;16.60
20058;BMP180;10189;49.546;7.906;2024-03-02T13:33:53;96715.00;;;16.60
20058;BMP180;10189;49.546;7.906;2024-03-02T13:37:04;96726.00;;;16.60
20058;BMP180;10189;49.546;7.906;2024-03-02T13:39:32;96711.00;;;16.70
20058;BMP180;10189;49.546;7.906;2024-03-02T13:41:59;96711.00;;;16.70
20058;BMP180;10189;49.546;7.906;2024-03-02T13:44:34;96710.00;;;16.60
20058;BMP180;10189;49.546;7.906;2024-03-02T13:47:01;96717.00;;;16.60
20058;BMP180;10189;49.546;7.906;2024-03-02T13:49:27;96710.00;;;16.60
20058;BMP180;10189;49.546;7.906;2024-03-02T13:52:06;96707.00;;;16.80
20058;BMP180;10189;49.546;7.906;2024-03-02T13:54:47;96698.00;;;16.80
20058;BMP180;10189;49.546;7.906;2024-03-02T13:57:14;96706.00;;;17.00
20058;BMP180;10189;49.546;7.906;2024-03-02T13:59:45;96698.00;;;17.10
20058;BMP180;10189;49.546;7.906;2024-03-02T14:02:14;96696.00;;;16.80
20058;BMP180;10189;49.546;7.906;2024-03-02T14:04:41;96694.00;;;16.80
20058;BMP180;10189;49.546;7.906;2024-03-02T14:07:07;96697.00;;;16.50
20058;BMP180;10189;49.546;7.906;2024-03-02T14:09:34;96682.00;;;16.40
20058;BMP180;10189;49.546;7.906;2024-03-02T14:12:00;96684.00;;;16.30
20058;BMP180;10189;49.546;7.906;2024-03-02T14:14:27;96679.00;;;16.40
20058;BMP180;10189;49.546;7.906;2024-03-02T14:16:54;96677.00;;;16.40
20058;BMP180;10189;49.546;7.906;2024-03-02T14:19:21;96686.00;;;16.20
20058;BMP180;10189;49.546;7.906;2024-03-02T14:21:47;96678.00;;;16.20